sensor_id;sensor_type;location;lat;lon;timestamp;P1;durP1;ratioP1;P2;durP2;ratioP2
10653;SDS011;5375;51.250;6.776;2024-03-23T00:55:10;2.87;;;1.40;;
10653;SDS011;5375;51.250;6.776;2024-03-23T00:57:36;3.23;;;1.50;;
10653;SDS011;5375;51.250;6.776;2024-03-23T01:00:03;1.60;;;1.13;;
10653;SDS011;5375;51.250;6.776;2024-03-23T01:02:31;2.53;;;1.40;;
10653;SDS011;5375;51.250;6.776;2024-03-23T01:04:57;3.00;;;1.30;;
10653;SDS011;5375;51.250;6.776;2024-03-23T01:07:23;2.17;;;1.20;;
10653;SDS011;5375;51.250;6.776;2024-03-23T01:09:49;3.07;;;1.10;;
10653;SDS011;5375;51.250;6.776;2024-03-23T01:12:15;2.37;;;1.00;;
10653;SDS011;5375;51.250;6.776;2024-03-23T01:14:41;1.73;;;1.27;;
10653;SDS011;5375;51.250;6.776;2024-03-23T01:17:07;2.73;;;1.40;;
10653;SDS011;5375;51.250;6.776;2024-03-23T01:19:33;2.77;;;1.20;;
10653;SDS011;5375;51.250;6.776;2024-03-23T01:21:59;2.50;;;1.40;;
10653;SDS011;5375;51.250;6.776;2024-03-23T01:24:25;2.30;;;1.20;;
10653;SDS011;5375;51.250;6.776;2024-03-23T01:26:51;1.60;;;1.30;;
10653;SDS011;5375;51.250;6.776;2024-03-23T01:29:17;2.23;;;1.17;;
10653;SDS011;5375;51.250;6.776;2024-03-23T01:31:43;2.13;;;1.20;;
10653;SDS011;5375;51.250;6.776;2024-03-23T01:34:09;2.60;;;1.10;;
10653;SDS011;5375;51.250;6.776;2024-03-23T01:36:37;1.83;;;1.00;;
10653;SDS011;5375;51.250;6.776;2024-03-23T01:39:04;2.97;;;1.10;;
10653;SDS011;5375;51.250;6.776;2024-03-23T01:41:30;4.03;;;1.30;;
10653;SDS011;5375;51.250;6.776;2024-03-23T01:43:56;4.20;;;1.20;;
10653;SDS011;5375;51.250;6.776;2024-03-23T01:46:22;2.50;;;1.23;;
10653;SDS011;5375;51.250;6.776;2024-03-23T01:48:48;3.37;;;1.33;;
10653;SDS011;5375;51.250;6.776;2024-03-23T01:51:14;2.00;;;1.10;;
10653;SDS011;5375;51.250;6.776;2024-03-23T01:53:40;2.30;;;1.40;;
10653;SDS011;5375;51.250;6.776;2024-03-23T01:56:06;2.13;;;1.20;;
10653;SDS011;5375;51.250;6.776;2024-03-23T01:58:33;2.13;;;1.20;;
10653;SDS011;5375;51.250;6.776;2024-03-23T02:00:59;2.10;;;1.00;;
10653;SDS011;5375;51.250;6.776;2024-03-23T02:03:26;2.00;;;0.90;;
10653;SDS011;5375;51.250;6.776;2024-03-23T02:05:55;2.23;;;1.10;;
10653;SDS011;5375;51.250;6.776;2024-03-23T02:08:23;2.07;;;1.30;;
10653;SDS011;5375;51.250;6.776;2024-03-23T02:10:50;2.07;;;1.10;;
10653;SDS011;5375;51.250;6.776;2024-03-23T02:13:16;2.73;;;1.07;;
10653;SDS011;5375;51.250;6.776;2024-03-23T02:15:42;2.93;;;1.30;;
10653;SDS011;5375;51.250;6.776;2024-03-23T02:18:08;2.43;;;1.20;;
10653;SDS011;5375;51.250;6.776;2024-03-23T02:20:35;2.13;;;1.03;;
10653;SDS011;5375;51.250;6.776;2024-03-23T02:23:01;2.10;;;1.17;;
10653;SDS011;5375;51.250;6.776;2024-03-23T02:25:27;1.93;;;1.20;;
10653;SDS011;5375;51.250;6.776;2024-03-23T02:27:53;1.30;;;1.00;;
10653;SDS011;5375;51.250;6.776;2024-03-23T02:30:19;1.63;;;1.00;;
10653;SDS011;5375;51.250;6.776;2024-03-23T02:32:45;2.73;;;1.10;;
10653;SDS011;5375;51.250;6.776;2024-03-23T02:35:11;3.13;;;1.30;;
10653;SDS011;5375;51.250;6.776;2024-03-23T02:37:38;2.60;;;1.23;;
10653;SDS011;5375;51.250;6.776;2024-03-23T02:40:04;3.10;;;1.33;;
10653;SDS011;5375;51.250;6.776;2024-03-23T02:42:30;1.40;;;0.90;;
10653;SDS011;5375;51.250;6.776;2024-03-23T02:44:56;2.77;;;1.10;;
10653;SDS011;5375;51.250;6.776;2024-03-23T02:47:22;2.10;;;1.03;;
10653;SDS011;5375;51.250;6.776;2024-03-23T02:49:48;1.83;;;0.90;;
10653;SDS011;5375;51.250;6.776;2024-03-23T02:52:14;2.50;;;1.20;;
10653;SDS011;5375;51.250;6.776;2024-03-23T02:54:40;1.40;;;1.00;;
10653;SDS011;5375;51.250;6.776;2024-03-23T02:57:09;1.80;;;1.07;;
10653;SDS011;5375;51.250;6.776;2024-03-23T02:59:35;2.83;;;1.20;;
10653;SDS011;5375;51.250;6.776;2024-03-23T03:02:01;2.60;;;1.20;;
10653;SDS011;5375;51.250;6.776;2024-03-23T03:04:29;1.50;;;1.00;;
10653;SDS011;5375;51.250;6.776;2024-03-23T03:06:55;2.07;;;1.20;;
10653;SDS011;5375;51.250;6.776;2024-03-23T03:09:26;2.57;;;0.97;;
10653;SDS011;5375;51.250;6.776;2024-03-23T03:11:52;1.87;;;0.97;;
10653;SDS011;5375;51.250;6.776;2024-03-23T03:14:18;2.20;;;1.00;;
10653;SDS011;5375;51.250;6.776;2024-03-23T03:16:44;2.23;;;1.10;;
10653;SDS011;5375;51.250;6.776;2024-03-23T03:19:10;1.80;;;0.90;;
10653;SDS011;5375;51.250;6.776;2024-03-23T03:21:37;1.83;;;1.00;;
10653;SDS011;5375;51.250;6.776;2024-03-23T03:24:03;2.03;;;1.10;;
10653;SDS011;5375;51.250;6.776;2024-03-23T03:26:29;3.30;;;0.87;;
10653;SDS011;5375;51.250;6.776;2024-03-23T03:28:55;3.40;;;1.10;;
10653;SDS011;5375;51.250;6.776;2024-03-23T03:31:21;3.27;;;1.00;;
10653;SDS011;5375;51.250;6.776;2024-03-23T03:33:47;1.53;;;1.10;;
10653;SDS011;5375;51.250;6.776;2024-03-23T03:36:15;2.27;;;1.10;;
10653;SDS011;5375;51.250;6.776;2024-03-23T03:38:41;1.60;;;1.00;;
10653;SDS011;5375;51.250;6.776;2024-03-23T03:41:07;3.50;;;1.03;;
10653;SDS011;5375;51.250;6.776;2024-03-23T03:43:34;2.30;;;1.17;;
10653;SDS011;5375;51.250;6.776;2024-03-23T03:46:01;2.70;;;1.10;;
10653;SDS011;5375;51.250;6.776;2024-03-23T03:48:27;2.27;;;1.10;;
10653;SDS011;5375;51.250;6.776;2024-03-23T03:50:54;3.93;;;1.13;;
10653;SDS011;5375;51.250;6.776;2024-03-23T03:53:20;2.17;;;0.90;;
10653;SDS011;5375;51.250;6.776;2024-03-23T03:55:46;3.10;;;1.20;;
10653;SDS011;5375;51.250;6.776;2024-03-23T03:58:12;1.30;;;0.90;;
10653;SDS011;5375;51.250;6.776;2024-03-23T04:00:38;1.37;;;0.90;;
10653;SDS011;5375;51.250;6.776;2024-03-23T04:03:05;1.43;;;1.03;;
10653;SDS011;5375;51.250;6.776;2024-03-23T04:05:31;1.80;;;0.80;;
10653;SDS011;5375;51.250;6.776;2024-03-23T04:07:57;3.07;;;0.90;;
10653;SDS011;5375;51.250;6.776;2024-03-23T04:10:23;2.97;;;1.20;;
10653;SDS011;5375;51.250;6.776;2024-03-23T04:12:50;2.07;;;0.90;;
10653;SDS011;5375;51.250;6.776;2024-03-23T04:15:16;2.40;;;0.70;;
10653;SDS011;5375;51.250;6.776;2024-03-23T04:17:42;2.10;;;0.80;;
10653;SDS011;5375;51.250;6.776;2024-03-23T04:20:08;1.40;;;0.87;;
10653;SDS011;5375;51.250;6.776;2024-03-23T04:22:41;1.93;;;0.93;;
10653;SDS011;5375;51.250;6.776;2024-03-23T04:25:09;1.50;;;1.07;;
10653;SDS011;5375;51.250;6.776;2024-03-23T04:27:36;2.03;;;0.90;;
10653;SDS011;5375;51.250;6.776;2024-03-23T04:30:02;1.80;;;0.87;;
10653;SDS011;5375;51.250;6.776;2024-03-23T04:32:30;2.23;;;0.80;;
10653;SDS011;5375;51.250;6.776;2024-03-23T04:34:56;2.17;;;1.17;;
10653;SDS011;5375;51.250;6.776;2024-03-23T04:37:22;1.43;;;0.80;;
10653;SDS011;5375;51.250;6.776;2024-03-23T04:39:48;2.00;;;1.00;;
10653;SDS011;5375;51.250;6.776;2024-03-23T04:42:15;1.83;;;0.87;;
10653;SDS011;5375;51.250;6.776;2024-03-23T04:44:41;2.13;;;1.00;;
10653;SDS011;5375;51.250;6.776;2024-03-23T04:47:07;1.20;;;0.77;;
10653;SDS011;5375;51.250;6.776;2024-03-23T04:49:33;2.67;;;1.10;;
10653;SDS011;5375;51.250;6.776;2024-03-23T04:52:02;2.10;;;0.80;;
10653;SDS011;5375;51.250;6.776;2024-03-23T04:54:28;2.50;;;1.13;;
10653;SDS011;5375;51.250;6.776;2024-03-23T04:56:54;2.23;;;0.90;;
10653;SDS011;5375;51.250;6.776;2024-03-23T04:59:20;1.57;;;0.90;;
10653;SDS011;5375;51.250;6.776;2024-03-23T05:01:48;1.93;;;0.90;;
10653;SDS011;5375;51.250;6.776;2024-03-23T05:04:14;1.93;;;0.90;;
10653;SDS011;5375;51.250;6.776;2024-03-23T05:06:40;1.30;;;0.90;;
10653;SDS011;5375;51.250;6.776;2024-03-23T05:09:05;1.93;;;1.00;;
10653;SDS011;5375;51.250;6.776;2024-03-23T05:11:32;2.37;;;1.20;;
10653;SDS011;5375;51.250;6.776;2024-03-23T05:13:59;1.97;;;0.90;;
10653;SDS011;5375;51.250;6.776;2024-03-23T05:16:25;3.20;;;1.20;;
10653;SDS011;5375;51.250;6.776;2024-03-23T05:18:53;1.90;;;0.90;;
10653;SDS011;5375;51.250;6.776;2024-03-23T05:21:19;1.80;;;0.70;;
10653;SDS011;5375;51.250;6.776;2024-03-23T05:23:45;1.53;;;0.80;;
10653;SDS011;5375;51.250;6.776;2024-03-23T05:26:12;2.00;;;0.90;;
10653;SDS011;5375;51.250;6.776;2024-03-23T05:28:38;3.47;;;1.20;;
10653;SDS011;5375;51.250;6.776;2024-03-23T05:31:05;4.53;;;1.00;;
10653;SDS011;5375;51.250;6.776;2024-03-23T05:33:32;3.77;;;0.80;;
10653;SDS011;5375;51.250;6.776;2024-03-23T05:36:01;3.70;;;1.10;;
10653;SDS011;5375;51.250;6.776;2024-03-23T05:41:51;4.13;;;0.90;;
10653;SDS011;5375;51.250;6.776;2024-03-23T05:44:17;3.07;;;1.27;;
10653;SDS011;5375;51.250;6.776;2024-03-23T05:46:43;4.37;;;1.03;;
10653;SDS011;5375;51.250;6.776;2024-03-23T05:49:13;1.93;;;1.00;;
10653;SDS011;5375;51.250;6.776;2024-03-23T05:51:39;1.87;;;0.90;;
10653;SDS011;5375;51.250;6.776;2024-03-23T05:54:06;2.20;;;0.80;;
10653;SDS011;5375;51.250;6.776;2024-03-23T05:56:37;2.70;;;0.90;;
10653;SDS011;5375;51.250;6.776;2024-03-23T05:59:03;3.60;;;1.10;;
10653;SDS011;5375;51.250;6.776;2024-03-23T06:01:29;2.77;;;1.03;;
10653;SDS011;5375;51.250;6.776;2024-03-23T06:03:57;2.27;;;1.00;;
10653;SDS011;5375;51.250;6.776;2024-03-23T06:06:23;2.87;;;1.00;;
10653;SDS011;5375;51.250;6.776;2024-03-23T06:08:49;2.93;;;0.90;;
10653;SDS011;5375;51.250;6.776;2024-03-23T06:11:15;4.07;;;1.00;;
10653;SDS011;5375;51.250;6.776;2024-03-23T06:13:41;2.70;;;0.87;;
10653;SDS011;5375;51.250;6.776;2024-03-23T06:16:07;2.90;;;1.10;;
10653;SDS011;5375;51.250;6.776;2024-03-23T06:18:33;2.30;;;0.83;;
10653;SDS011;5375;51.250;6.776;2024-03-23T06:20:59;0.90;;;0.70;;
10653;SDS011;5375;51.250;6.776;2024-03-23T06:23:26;2.17;;;0.90;;
10653;SDS011;5375;51.250;6.776;2024-03-23T06:25:52;3.33;;;0.93;;
10653;SDS011;5375;51.250;6.776;2024-03-23T06:28:18;4.13;;;1.10;;
10653;SDS011;5375;51.250;6.776;2024-03-23T06:30:46;2.97;;;1.20;;
10653;SDS011;5375;51.250;6.776;2024-03-23T06:33:13;2.27;;;1.37;;
10653;SDS011;5375;51.250;6.776;2024-03-23T06:35:39;2.93;;;0.90;;
10653;SDS011;5375;51.250;6.776;2024-03-23T06:38:06;2.13;;;1.10;;
10653;SDS011;5375;51.250;6.776;2024-03-23T06:40:32;2.63;;;1.30;;
10653;SDS011;5375;51.250;6.776;2024-03-23T08:40:14;6.97;;;1.20;;
10653;SDS011;5375;51.250;6.776;2024-03-23T08:42:40;3.67;;;1.10;;
10653;SDS011;5375;51.250;6.776;2024-03-23T08:45:06;8.07;;;1.60;;
10653;SDS011;5375;51.250;6.776;2024-03-23T08:47:34;5.87;;;1.47;;
10653;SDS011;5375;51.250;6.776;2024-03-23T08:50:01;2.37;;;1.50;;
10653;SDS011;5375;51.250;6.776;2024-03-23T08:52:28;5.63;;;1.50;;
10653;SDS011;5375;51.250;6.776;2024-03-23T08:54:55;3.63;;;1.10;;
10653;SDS011;5375;51.250;6.776;2024-03-23T08:57:22;3.30;;;1.20;;
10653;SDS011;5375;51.250;6.776;2024-03-23T08:59:48;3.03;;;1.20;;
10653;SDS011;5375;51.250;6.776;2024-03-23T09:02:14;5.33;;;1.03;;
10653;SDS011;5375;51.250;6.776;2024-03-23T09:04:40;3.23;;;1.00;;
10653;SDS011;5375;51.250;6.776;2024-03-23T09:07:06;2.40;;;1.17;;
10653;SDS011;5375;51.250;6.776;2024-03-23T09:09:37;5.03;;;1.20;;
10653;SDS011;5375;51.250;6.776;2024-03-23T09:12:03;1.70;;;1.00;;
10653;SDS011;5375;51.250;6.776;2024-03-23T09:14:29;2.93;;;1.30;;
10653;SDS011;5375;51.250;6.776;2024-03-23T09:16:55;4.03;;;1.20;;
10653;SDS011;5375;51.250;6.776;2024-03-23T09:19:21;3.03;;;1.27;;
10653;SDS011;5375;51.250;6.776;2024-03-23T09:21:46;2.00;;;1.03;;
10653;SDS011;5375;51.250;6.776;2024-03-23T09:24:12;2.47;;;1.20;;
10653;SDS011;5375;51.250;6.776;2024-03-23T09:26:38;2.63;;;1.27;;
10653;SDS011;5375;51.250;6.776;2024-03-23T09:29:04;3.03;;;1.30;;
10653;SDS011;5375;51.250;6.776;2024-03-23T09:31:30;2.20;;;1.07;;
10653;SDS011;5375;51.250;6.776;2024-03-23T09:33:58;3.13;;;1.00;;
10653;SDS011;5375;51.250;6.776;2024-03-23T09:36:24;4.83;;;1.50;;
10653;SDS011;5375;51.250;6.776;2024-03-23T09:38:53;1.73;;;1.00;;
10653;SDS011;5375;51.250;6.776;2024-03-23T09:41:19;4.80;;;1.20;;
10653;SDS011;5375;51.250;6.776;2024-03-23T09:43:46;2.17;;;1.10;;
10653;SDS011;5375;51.250;6.776;2024-03-23T09:46:13;2.17;;;1.13;;
10653;SDS011;5375;51.250;6.776;2024-03-23T09:48:39;4.93;;;1.27;;
10653;SDS011;5375;51.250;6.776;2024-03-23T09:51:06;3.87;;;0.90;;
10653;SDS011;5375;51.250;6.776;2024-03-23T09:53:34;2.50;;;1.20;;
10653;SDS011;5375;51.250;6.776;2024-03-23T09:56:00;3.83;;;1.20;;
10653;SDS011;5375;51.250;6.776;2024-03-23T09:58:26;1.93;;;1.00;;
10653;SDS011;5375;51.250;6.776;2024-03-23T10:00:52;1.93;;;1.10;;
10653;SDS011;5375;51.250;6.776;2024-03-23T10:03:21;3.07;;;1.20;;
10653;SDS011;5375;51.250;6.776;2024-03-23T10:05:46;2.07;;;1.00;;
10653;SDS011;5375;51.250;6.776;2024-03-23T10:10:41;2.10;;;1.00;;
10653;SDS011;5375;51.250;6.776;2024-03-23T10:13:07;2.30;;;1.27;;
10653;SDS011;5375;51.250;6.776;2024-03-23T10:15:33;3.60;;;1.10;;
10653;SDS011;5375;51.250;6.776;2024-03-23T10:18:17;3.13;;;1.00;;
10653;SDS011;5375;51.250;6.776;2024-03-23T10:20:43;2.73;;;1.20;;
10653;SDS011;5375;51.250;6.776;2024-03-23T10:23:16;3.00;;;1.30;;
10653;SDS011;5375;51.250;6.776;2024-03-23T10:25:42;1.93;;;0.80;;
10653;SDS011;5375;51.250;6.776;2024-03-23T10:28:08;2.33;;;0.97;;
10653;SDS011;5375;51.250;6.776;2024-03-23T10:30:36;1.73;;;1.00;;
10653;SDS011;5375;51.250;6.776;2024-03-23T10:33:20;1.77;;;0.80;;
10653;SDS011;5375;51.250;6.776;2024-03-23T10:35:46;2.83;;;0.93;;
10653;SDS011;5375;51.250;6.776;2024-03-23T10:38:13;1.83;;;1.00;;
10653;SDS011;5375;51.250;6.776;2024-03-23T10:40:39;2.43;;;0.87;;
10653;SDS011;5375;51.250;6.776;2024-03-23T10:43:07;2.00;;;1.10;;
10653;SDS011;5375;51.250;6.776;2024-03-23T10:45:33;2.03;;;1.07;;
10653;SDS011;5375;51.250;6.776;2024-03-23T10:47:59;2.30;;;0.90;;
10653;SDS011;5375;51.250;6.776;2024-03-23T10:50:25;2.10;;;1.00;;
10653;SDS011;5375;51.250;6.776;2024-03-23T10:52:52;2.43;;;0.90;;
10653;SDS011;5375;51.250;6.776;2024-03-23T10:55:23;2.13;;;1.00;;
10653;SDS011;5375;51.250;6.776;2024-03-23T10:57:52;3.73;;;1.00;;
10653;SDS011;5375;51.250;6.776;2024-03-23T11:00:19;3.00;;;0.80;;
10653;SDS011;5375;51.250;6.776;2024-03-23T11:02:48;2.60;;;1.07;;
10653;SDS011;5375;51.250;6.776;2024-03-23T11:07:53;1.37;;;0.70;;
10653;SDS011;5375;51.250;6.776;2024-03-23T11:12:51;1.53;;;0.87;;
10653;SDS011;5375;51.250;6.776;2024-03-23T11:15:18;1.50;;;0.80;;
10653;SDS011;5375;51.250;6.776;2024-03-23T11:20:55;2.80;;;1.10;;
10653;SDS011;5375;51.250;6.776;2024-03-23T11:23:27;2.23;;;0.83;;
10653;SDS011;5375;51.250;6.776;2024-03-23T11:25:59;2.13;;;0.70;;
10653;SDS011;5375;51.250;6.776;2024-03-23T11:28:25;2.23;;;1.03;;
10653;SDS011;5375;51.250;6.776;2024-03-23T11:30:51;1.67;;;0.73;;
10653;SDS011;5375;51.250;6.776;2024-03-23T11:33:17;2.50;;;0.80;;
10653;SDS011;5375;51.250;6.776;2024-03-23T11:35:43;1.60;;;0.80;;
10653;SDS011;5375;51.250;6.776;2024-03-23T11:40:39;0.90;;;0.70;;
10653;SDS011;5375;51.250;6.776;2024-03-23T11:45:47;1.23;;;0.70;;
10653;SDS011;5375;51.250;6.776;2024-03-23T11:48:17;1.10;;;0.70;;
10653;SDS011;5375;51.250;6.776;2024-03-23T11:50:45;2.27;;;0.90;;
10653;SDS011;5375;51.250;6.776;2024-03-23T11:58:23;1.70;;;0.70;;
10653;SDS011;5375;51.250;6.776;2024-03-23T12:00:50;2.37;;;0.80;;
10653;SDS011;5375;51.250;6.776;2024-03-23T12:03:17;2.50;;;0.60;;
10653;SDS011;5375;51.250;6.776;2024-03-23T12:05:47;1.33;;;0.70;;
10653;SDS011;5375;51.250;6.776;2024-03-23T12:08:19;1.13;;;0.80;;
10653;SDS011;5375;51.250;6.776;2024-03-23T12:10:48;1.47;;;0.80;;
10653;SDS011;5375;51.250;6.776;2024-03-23T12:13:18;1.03;;;0.70;;
10653;SDS011;5375;51.250;6.776;2024-03-23T12:15:45;2.87;;;1.00;;
10653;SDS011;5375;51.250;6.776;2024-03-23T12:18:12;1.97;;;0.77;;
10653;SDS011;5375;51.250;6.776;2024-03-23T12:20:38;2.50;;;1.07;;
10653;SDS011;5375;51.250;6.776;2024-03-23T12:23:05;1.97;;;0.90;;
10653;SDS011;5375;51.250;6.776;2024-03-23T12:25:38;1.77;;;0.80;;
10653;SDS011;5375;51.250;6.776;2024-03-23T12:28:04;1.57;;;0.80;;
10653;SDS011;5375;51.250;6.776;2024-03-23T12:30:34;1.23;;;0.80;;
10653;SDS011;5375;51.250;6.776;2024-03-23T12:33:02;1.27;;;0.70;;
10653;SDS011;5375;51.250;6.776;2024-03-23T12:35:28;1.50;;;0.70;;
10653;SDS011;5375;51.250;6.776;2024-03-23T12:37:54;1.47;;;0.80;;
10653;SDS011;5375;51.250;6.776;2024-03-23T12:40:20;1.20;;;0.73;;
10653;SDS011;5375;51.250;6.776;2024-03-23T12:42:45;1.47;;;0.77;;
10653;SDS011;5375;51.250;6.776;2024-03-23T12:45:11;1.73;;;0.70;;
10653;SDS011;5375;51.250;6.776;2024-03-23T12:47:37;1.80;;;0.93;;
10653;SDS011;5375;51.250;6.776;2024-03-23T12:50:07;1.67;;;0.80;;
10653;SDS011;5375;51.250;6.776;2024-03-23T12:52:34;1.10;;;0.63;;
10653;SDS011;5375;51.250;6.776;2024-03-23T12:55:00;1.90;;;0.63;;
10653;SDS011;5375;51.250;6.776;2024-03-23T12:57:28;1.40;;;0.70;;
10653;SDS011;5375;51.250;6.776;2024-03-23T12:59:54;1.37;;;0.80;;
10653;SDS011;5375;51.250;6.776;2024-03-23T13:02:21;0.83;;;0.60;;
10653;SDS011;5375;51.250;6.776;2024-03-23T13:04:50;2.40;;;1.07;;
10653;SDS011;5375;51.250;6.776;2024-03-23T13:07:21;1.27;;;0.70;;
10653;SDS011;5375;51.250;6.776;2024-03-23T13:09:51;0.83;;;0.60;;
10653;SDS011;5375;51.250;6.776;2024-03-23T13:12:17;1.73;;;0.60;;
10653;SDS011;5375;51.250;6.776;2024-03-23T13:14:44;1.33;;;0.70;;
10653;SDS011;5375;51.250;6.776;2024-03-23T13:17:10;1.30;;;0.70;;
10653;SDS011;5375;51.250;6.776;2024-03-23T13:19:36;1.47;;;0.83;;
10653;SDS011;5375;51.250;6.776;2024-03-23T13:22:02;1.30;;;0.70;;
10653;SDS011;5375;51.250;6.776;2024-03-23T13:24:33;1.83;;;0.83;;
10653;SDS011;5375;51.250;6.776;2024-03-23T13:26:59;1.30;;;0.60;;
10653;SDS011;5375;51.250;6.776;2024-03-23T13:29:25;0.97;;;0.70;;
10653;SDS011;5375;51.250;6.776;2024-03-23T13:31:56;0.97;;;0.60;;
10653;SDS011;5375;51.250;6.776;2024-03-23T13:34:22;1.03;;;0.77;;
10653;SDS011;5375;51.250;6.776;2024-03-23T13:36:48;1.53;;;0.80;;
10653;SDS011;5375;51.250;6.776;2024-03-23T13:39:14;1.13;;;0.63;;
10653;SDS011;5375;51.250;6.776;2024-03-23T13:41:44;1.13;;;0.67;;
10653;SDS011;5375;51.250;6.776;2024-03-23T13:44:13;2.67;;;0.70;;
10653;SDS011;5375;51.250;6.776;2024-03-23T13:46:39;2.77;;;0.80;;
10653;SDS011;5375;51.250;6.776;2024-03-23T13:49:07;2.33;;;0.70;;
10653;SDS011;5375;51.250;6.776;2024-03-23T13:51:33;1.87;;;0.70;;
10653;SDS011;5375;51.250;6.776;2024-03-23T13:54:03;1.63;;;0.60;;
10653;SDS011;5375;51.250;6.776;2024-03-23T13:56:29;1.60;;;0.53;;
10653;SDS011;5375;51.250;6.776;2024-03-23T13:58:55;1.13;;;0.57;;
10653;SDS011;5375;51.250;6.776;2024-03-23T14:01:21;1.30;;;0.67;;
10653;SDS011;5375;51.250;6.776;2024-03-23T14:03:48;1.23;;;0.70;;
10653;SDS011;5375;51.250;6.776;2024-03-23T14:06:14;1.47;;;0.60;;
10653;SDS011;5375;51.250;6.776;2024-03-23T14:08:40;1.47;;;0.50;;
10653;SDS011;5375;51.250;6.776;2024-03-23T14:11:07;1.23;;;0.70;;
10653;SDS011;5375;51.250;6.776;2024-03-23T14:13:34;1.60;;;0.60;;
10653;SDS011;5375;51.250;6.776;2024-03-23T14:16:00;1.50;;;0.60;;
10653;SDS011;5375;51.250;6.776;2024-03-23T14:18:26;1.87;;;0.80;;
10653;SDS011;5375;51.250;6.776;2024-03-23T14:20:52;2.60;;;0.63;;
10653;SDS011;5375;51.250;6.776;2024-03-23T14:23:25;1.40;;;0.60;;
10653;SDS011;5375;51.250;6.776;2024-03-23T14:25:54;2.23;;;0.87;;
10653;SDS011;5375;51.250;6.776;2024-03-23T14:28:21;2.00;;;0.60;;
10653;SDS011;5375;51.250;6.776;2024-03-23T14:30:47;1.53;;;0.67;;
10653;SDS011;5375;51.250;6.776;2024-03-23T14:33:14;2.83;;;0.70;;
10653;SDS011;5375;51.250;6.776;2024-03-23T14:35:58;2.70;;;0.80;;
10653;SDS011;5375;51.250;6.776;2024-03-23T14:38:27;0.80;;;0.50;;
10653;SDS011;5375;51.250;6.776;2024-03-23T14:40:53;1.13;;;0.60;;
10653;SDS011;5375;51.250;6.776;2024-03-23T14:43:19;4.70;;;0.70;;
10653;SDS011;5375;51.250;6.776;2024-03-23T14:46:08;3.23;;;0.70;;
10653;SDS011;5375;51.250;6.776;2024-03-23T14:48:33;3.07;;;0.70;;
10653;SDS011;5375;51.250;6.776;2024-03-23T14:51:00;1.20;;;0.57;;
10653;SDS011;5375;51.250;6.776;2024-03-23T14:53:29;1.57;;;0.63;;
10653;SDS011;5375;51.250;6.776;2024-03-23T14:55:57;2.03;;;0.70;;
10653;SDS011;5375;51.250;6.776;2024-03-23T14:58:24;1.00;;;0.60;;
10653;SDS011;5375;51.250;6.776;2024-03-23T15:00:50;1.50;;;0.67;;
10653;SDS011;5375;51.250;6.776;2024-03-23T15:03:17;1.20;;;0.60;;
10653;SDS011;5375;51.250;6.776;2024-03-23T15:05:52;1.23;;;0.73;;
10653;SDS011;5375;51.250;6.776;2024-03-23T15:08:18;1.40;;;0.70;;
10653;SDS011;5375;51.250;6.776;2024-03-23T15:10:44;1.10;;;0.50;;
10653;SDS011;5375;51.250;6.776;2024-03-23T15:13:10;2.70;;;0.70;;
10653;SDS011;5375;51.250;6.776;2024-03-23T15:15:39;1.60;;;0.90;;
10653;SDS011;5375;51.250;6.776;2024-03-23T15:18:07;2.13;;;0.90;;
10653;SDS011;5375;51.250;6.776;2024-03-23T15:20:33;1.13;;;0.70;;
10653;SDS011;5375;51.250;6.776;2024-03-23T15:23:01;2.87;;;0.63;;
10653;SDS011;5375;51.250;6.776;2024-03-23T15:25:27;3.60;;;0.70;;
10653;SDS011;5375;51.250;6.776;2024-03-23T15:27:53;1.20;;;0.67;;
10653;SDS011;5375;51.250;6.776;2024-03-23T15:30:20;1.47;;;0.70;;
10653;SDS011;5375;51.250;6.776;2024-03-23T15:32:46;2.47;;;0.63;;
10653;SDS011;5375;51.250;6.776;2024-03-23T15:35:12;1.60;;;0.70;;
10653;SDS011;5375;51.250;6.776;2024-03-23T15:37:38;1.20;;;0.53;;
10653;SDS011;5375;51.250;6.776;2024-03-23T15:40:06;0.70;;;0.57;;
10653;SDS011;5375;51.250;6.776;2024-03-23T15:42:32;2.03;;;0.70;;
10653;SDS011;5375;51.250;6.776;2024-03-23T15:44:58;0.97;;;0.53;;
10653;SDS011;5375;51.250;6.776;2024-03-23T15:47:24;1.30;;;0.50;;
10653;SDS011;5375;51.250;6.776;2024-03-23T15:49:50;1.20;;;0.73;;
10653;SDS011;5375;51.250;6.776;2024-03-23T15:52:18;1.67;;;0.60;;
10653;SDS011;5375;51.250;6.776;2024-03-23T15:54:44;1.33;;;0.60;;
10653;SDS011;5375;51.250;6.776;2024-03-23T15:57:10;0.90;;;0.50;;
10653;SDS011;5375;51.250;6.776;2024-03-23T15:59:39;1.10;;;0.60;;
10653;SDS011;5375;51.250;6.776;2024-03-23T16:02:05;3.10;;;0.50;;
10653;SDS011;5375;51.250;6.776;2024-03-23T16:04:31;1.37;;;0.50;;
10653;SDS011;5375;51.250;6.776;2024-03-23T16:06:58;1.33;;;0.63;;
10653;SDS011;5375;51.250;6.776;2024-03-23T16:09:24;0.90;;;0.40;;
10653;SDS011;5375;51.250;6.776;2024-03-23T16:11:50;1.33;;;0.63;;
10653;SDS011;5375;51.250;6.776;2024-03-23T16:14:20;1.10;;;0.63;;
10653;SDS011;5375;51.250;6.776;2024-03-23T16:16:47;1.30;;;0.70;;
10653;SDS011;5375;51.250;6.776;2024-03-23T16:19:13;2.03;;;0.73;;
10653;SDS011;5375;51.250;6.776;2024-03-23T16:21:39;1.03;;;0.60;;
10653;SDS011;5375;51.250;6.776;2024-03-23T16:24:06;1.00;;;0.50;;
10653;SDS011;5375;51.250;6.776;2024-03-23T16:26:33;1.00;;;0.60;;
10653;SDS011;5375;51.250;6.776;2024-03-23T16:28:59;1.10;;;0.70;;
10653;SDS011;5375;51.250;6.776;2024-03-23T16:31:25;1.33;;;0.70;;
10653;SDS011;5375;51.250;6.776;2024-03-23T16:33:51;1.43;;;0.70;;
10653;SDS011;5375;51.250;6.776;2024-03-23T16:36:17;1.27;;;0.70;;
10653;SDS011;5375;51.250;6.776;2024-03-23T16:38:43;1.93;;;0.63;;
10653;SDS011;5375;51.250;6.776;2024-03-23T16:41:11;2.40;;;0.53;;
10653;SDS011;5375;51.250;6.776;2024-03-23T16:43:43;1.20;;;0.70;;
10653;SDS011;5375;51.250;6.776;2024-03-23T16:46:10;1.63;;;0.60;;
10653;SDS011;5375;51.250;6.776;2024-03-23T16:48:37;1.87;;;0.67;;
10653;SDS011;5375;51.250;6.776;2024-03-23T16:51:07;2.80;;;0.80;;
10653;SDS011;5375;51.250;6.776;2024-03-23T16:53:33;0.70;;;0.50;;
10653;SDS011;5375;51.250;6.776;2024-03-23T16:58:30;2.77;;;0.80;;
10653;SDS011;5375;51.250;6.776;2024-03-23T17:00:56;1.20;;;0.60;;
10653;SDS011;5375;51.250;6.776;2024-03-23T17:03:23;0.73;;;0.57;;
10653;SDS011;5375;51.250;6.776;2024-03-23T17:05:49;1.63;;;0.70;;
10653;SDS011;5375;51.250;6.776;2024-03-23T17:08:18;0.93;;;0.60;;
10653;SDS011;5375;51.250;6.776;2024-03-23T17:10:44;1.63;;;0.60;;
10653;SDS011;5375;51.250;6.776;2024-03-23T17:13:11;1.20;;;0.57;;
10653;SDS011;5375;51.250;6.776;2024-03-23T17:15:44;2.03;;;0.60;;
10653;SDS011;5375;51.250;6.776;2024-03-23T17:18:10;0.90;;;0.40;;
10653;SDS011;5375;51.250;6.776;2024-03-23T17:20:38;0.77;;;0.40;;
10653;SDS011;5375;51.250;6.776;2024-03-23T17:23:04;1.50;;;0.60;;
10653;SDS011;5375;51.250;6.776;2024-03-23T17:25:30;3.70;;;0.90;;
10653;SDS011;5375;51.250;6.776;2024-03-23T17:27:56;8.27;;;1.10;;
10653;SDS011;5375;51.250;6.776;2024-03-23T17:30:23;2.70;;;1.17;;
10653;SDS011;5375;51.250;6.776;2024-03-23T17:32:49;5.60;;;1.40;;
10653;SDS011;5375;51.250;6.776;2024-03-23T17:35:15;4.17;;;1.57;;
10653;SDS011;5375;51.250;6.776;2024-03-23T17:37:42;7.50;;;1.60;;
10653;SDS011;5375;51.250;6.776;2024-03-23T17:40:08;7.50;;;1.90;;
10653;SDS011;5375;51.250;6.776;2024-03-23T17:42:40;8.57;;;2.00;;
10653;SDS011;5375;51.250;6.776;2024-03-23T17:45:06;7.60;;;2.33;;
10653;SDS011;5375;51.250;6.776;2024-03-23T17:47:35;7.73;;;1.90;;
10653;SDS011;5375;51.250;6.776;2024-03-23T17:50:01;6.93;;;2.20;;
10653;SDS011;5375;51.250;6.776;2024-03-23T17:52:27;7.53;;;2.20;;
10653;SDS011;5375;51.250;6.776;2024-03-23T17:54:53;9.03;;;2.20;;
10653;SDS011;5375;51.250;6.776;2024-03-23T17:57:19;10.63;;;2.40;;
10653;SDS011;5375;51.250;6.776;2024-03-23T17:59:45;8.10;;;2.13;;
10653;SDS011;5375;51.250;6.776;2024-03-23T18:02:11;11.33;;;2.73;;
10653;SDS011;5375;51.250;6.776;2024-03-23T18:04:37;12.93;;;2.67;;
10653;SDS011;5375;51.250;6.776;2024-03-23T18:07:03;7.27;;;2.57;;
10653;SDS011;5375;51.250;6.776;2024-03-23T18:09:28;10.37;;;2.53;;
10653;SDS011;5375;51.250;6.776;2024-03-23T18:11:54;7.80;;;3.03;;
10653;SDS011;5375;51.250;6.776;2024-03-23T18:14:21;8.27;;;2.50;;
10653;SDS011;5375;51.250;6.776;2024-03-23T18:16:50;10.93;;;2.60;;